KDSM/DSM METAR and TAF weather

Enter ICAO airport designator
Station Type Date Time Source
KDSM METAR 2024/04/18 06:54 UTC NOAA

KDSM 180654Z 03008KT 10SM OVC090 13/06 A2999 RMK AO2 SLP152 T01330061


Station Type Date Time Source
KDSM Decoded METAR 2024/04/18 06:54 UTC NOAA

DES MOINES INTERNATIONAL, IA, United States (KDSM) 41-32N 93-40W 295M
Apr 18, 2024 - 02:54 AM EDT / 2024.04.18 0654 UTC
Wind: from the NNE (030 degrees) at 9 MPH (8 KT):0
Visibility: 10 mile(s):0
Sky conditions: overcast
Temperature: 55.9 F (13.3 C)
Dew Point: 43.0 F (6.1 C)
Relative Humidity: 61%
Pressure (altimeter): 29.99 in. Hg (1015 hPa)
ob: KDSM 180654Z 03008KT 10SM OVC090 13/06 A2999 RMK AO2 SLP152 T01330061
cycle: 7

Station Type Date Time Source
KDSM TAF 2024/04/18 06:22 UTC NOAA